sensor_id;sensor_type;location;lat;lon;timestamp;temperature;humidity
16666;DHT22;8446;50.998;6.250;2023-05-14T00:01:48;12.00;99.90
16666;DHT22;8446;50.998;6.250;2023-05-14T00:04:17;11.90;99.90
16666;DHT22;8446;50.998;6.250;2023-05-14T00:06:45;11.90;99.90
16666;DHT22;8446;50.998;6.250;2023-05-14T00:09:11;11.80;99.90
16666;DHT22;8446;50.998;6.250;2023-05-14T00:11:38;11.80;99.90
16666;DHT22;8446;50.998;6.250;2023-05-14T00:14:05;11.80;99.90
16666;DHT22;8446;50.998;6.250;2023-05-14T00:16:32;11.80;99.90
16666;DHT22;8446;50.998;6.250;2023-05-14T00:18:58;11.80;99.90
16666;DHT22;8446;50.998;6.250;2023-05-14T00:21:26;11.70;99.90
16666;DHT22;8446;50.998;6.250;2023-05-14T00:23:53;11.70;99.90
16666;DHT22;8446;50.998;6.250;2023-05-14T00:26:20;11.70;99.90
16666;DHT22;8446;50.998;6.250;2023-05-14T00:28:47;11.50;99.90
16666;DHT22;8446;50.998;6.250;2023-05-14T00:31:14;11.30;99.90
16666;DHT22;8446;50.998;6.250;2023-05-14T00:33:40;11.20;99.90
16666;DHT22;8446;50.998;6.250;2023-05-14T00:36:07;11.10;99.90
16666;DHT22;8446;50.998;6.250;2023-05-14T00:38:36;10.90;99.90
16666;DHT22;8446;50.998;6.250;2023-05-14T00:41:03;10.70;99.90
16666;DHT22;8446;50.998;6.250;2023-05-14T00:43:30;10.60;99.90
16666;DHT22;8446;50.998;6.250;2023-05-14T00:45:58;10.60;99.90
16666;DHT22;8446;50.998;6.250;2023-05-14T00:48:25;10.70;99.90
16666;DHT22;8446;50.998;6.250;2023-05-14T00:50:52;10.70;99.90
16666;DHT22;8446;50.998;6.250;2023-05-14T00:53:20;10.70;99.90
16666;DHT22;8446;50.998;6.250;2023-05-14T00:55:49;10.80;99.90
16666;DHT22;8446;50.998;6.250;2023-05-14T00:58:17;10.80;99.90
16666;DHT22;8446;50.998;6.250;2023-05-14T01:00:44;10.80;99.90
16666;DHT22;8446;50.998;6.250;2023-05-14T01:03:11;10.80;99.90
16666;DHT22;8446;50.998;6.250;2023-05-14T01:05:42;10.90;99.90
16666;DHT22;8446;50.998;6.250;2023-05-14T01:08:28;10.90;99.90
16666;DHT22;8446;50.998;6.250;2023-05-14T01:11:03;10.80;99.90
16666;DHT22;8446;50.998;6.250;2023-05-14T01:13:36;10.70;99.90
16666;DHT22;8446;50.998;6.250;2023-05-14T01:16:10;10.60;99.90
16666;DHT22;8446;50.998;6.250;2023-05-14T01:18:39;10.60;99.90
16666;DHT22;8446;50.998;6.250;2023-05-14T01:21:23;10.60;99.90
16666;DHT22;8446;50.998;6.250;2023-05-14T01:23:50;10.60;99.90
16666;DHT22;8446;50.998;6.250;2023-05-14T01:26:17;10.60;99.90
16666;DHT22;8446;50.998;6.250;2023-05-14T01:28:46;10.60;99.90
16666;DHT22;8446;50.998;6.250;2023-05-14T01:31:17;10.60;99.90
16666;DHT22;8446;50.998;6.250;2023-05-14T01:33:50;10.70;99.90
16666;DHT22;8446;50.998;6.250;2023-05-14T01:36:17;10.70;99.90
16666;DHT22;8446;50.998;6.250;2023-05-14T01:38:46;10.70;99.90
16666;DHT22;8446;50.998;6.250;2023-05-14T01:41:15;10.60;99.90
16666;DHT22;8446;50.998;6.250;2023-05-14T01:43:44;10.50;99.90
16666;DHT22;8446;50.998;6.250;2023-05-14T01:46:11;10.50;99.90
16666;DHT22;8446;50.998;6.250;2023-05-14T01:48:38;10.50;99.90
16666;DHT22;8446;50.998;6.250;2023-05-14T01:51:05;10.30;99.90
16666;DHT22;8446;50.998;6.250;2023-05-14T01:53:33;10.20;99.90
16666;DHT22;8446;50.998;6.250;2023-05-14T01:56:01;10.10;99.90
16666;DHT22;8446;50.998;6.250;2023-05-14T01:58:28;10.20;99.90
16666;DHT22;8446;50.998;6.250;2023-05-14T02:00:55;10.10;99.90
16666;DHT22;8446;50.998;6.250;2023-05-14T02:03:22;10.20;99.90
16666;DHT22;8446;50.998;6.250;2023-05-14T02:05:48;10.20;99.90
16666;DHT22;8446;50.998;6.250;2023-05-14T02:08:15;10.20;99.90
16666;DHT22;8446;50.998;6.250;2023-05-14T02:10:42;10.20;99.90
16666;DHT22;8446;50.998;6.250;2023-05-14T02:13:10;10.20;99.90
16666;DHT22;8446;50.998;6.250;2023-05-14T02:15:37;10.30;99.90
16666;DHT22;8446;50.998;6.250;2023-05-14T02:18:04;10.30;99.90
16666;DHT22;8446;50.998;6.250;2023-05-14T02:20:31;10.30;99.90
16666;DHT22;8446;50.998;6.250;2023-05-14T02:22:58;10.20;99.90
16666;DHT22;8446;50.998;6.250;2023-05-14T02:25:25;10.20;99.90
16666;DHT22;8446;50.998;6.250;2023-05-14T02:27:52;10.20;99.90
16666;DHT22;8446;50.998;6.250;2023-05-14T02:30:20;10.20;99.90
16666;DHT22;8446;50.998;6.250;2023-05-14T02:32:47;10.10;99.90
16666;DHT22;8446;50.998;6.250;2023-05-14T02:35:14;10.10;99.90
16666;DHT22;8446;50.998;6.250;2023-05-14T02:37:41;10.10;99.90
16666;DHT22;8446;50.998;6.250;2023-05-14T02:40:08;10.10;99.90
16666;DHT22;8446;50.998;6.250;2023-05-14T02:42:35;10.10;99.90
16666;DHT22;8446;50.998;6.250;2023-05-14T02:45:03;10.00;99.90
16666;DHT22;8446;50.998;6.250;2023-05-14T02:47:31;9.90;99.90
16666;DHT22;8446;50.998;6.250;2023-05-14T02:49:58;9.90;99.90
16666;DHT22;8446;50.998;6.250;2023-05-14T02:52:24;9.80;99.90
16666;DHT22;8446;50.998;6.250;2023-05-14T02:54:51;9.90;99.90
16666;DHT22;8446;50.998;6.250;2023-05-14T02:57:18;9.80;99.90
16666;DHT22;8446;50.998;6.250;2023-05-14T02:59:45;9.80;99.90
16666;DHT22;8446;50.998;6.250;2023-05-14T03:02:12;9.80;99.90
16666;DHT22;8446;50.998;6.250;2023-05-14T03:04:40;9.60;99.90
16666;DHT22;8446;50.998;6.250;2023-05-14T03:07:07;9.50;99.90
16666;DHT22;8446;50.998;6.250;2023-05-14T03:09:33;9.50;99.90
16666;DHT22;8446;50.998;6.250;2023-05-14T03:12:00;9.60;99.90
16666;DHT22;8446;50.998;6.250;2023-05-14T03:14:27;9.50;99.90
16666;DHT22;8446;50.998;6.250;2023-05-14T03:16:54;9.40;99.90
16666;DHT22;8446;50.998;6.250;2023-05-14T03:19:20;9.40;99.90
16666;DHT22;8446;50.998;6.250;2023-05-14T03:21:49;9.40;99.90
16666;DHT22;8446;50.998;6.250;2023-05-14T03:24:15;9.40;99.90
16666;DHT22;8446;50.998;6.250;2023-05-14T03:26:42;9.20;99.90
16666;DHT22;8446;50.998;6.250;2023-05-14T03:29:09;9.30;99.90
16666;DHT22;8446;50.998;6.250;2023-05-14T03:31:36;9.30;99.90
16666;DHT22;8446;50.998;6.250;2023-05-14T03:34:02;9.40;99.90
16666;DHT22;8446;50.998;6.250;2023-05-14T03:36:29;9.50;99.90
16666;DHT22;8446;50.998;6.250;2023-05-14T03:38:57;9.50;99.90
16666;DHT22;8446;50.998;6.250;2023-05-14T03:41:24;9.50;99.90
16666;DHT22;8446;50.998;6.250;2023-05-14T03:43:51;9.60;99.90
16666;DHT22;8446;50.998;6.250;2023-05-14T03:46:18;9.60;99.90
16666;DHT22;8446;50.998;6.250;2023-05-14T03:48:44;9.70;99.90
16666;DHT22;8446;50.998;6.250;2023-05-14T03:51:11;9.60;99.90
16666;DHT22;8446;50.998;6.250;2023-05-14T03:53:38;9.60;99.90
16666;DHT22;8446;50.998;6.250;2023-05-14T03:56:07;9.60;99.90
16666;DHT22;8446;50.998;6.250;2023-05-14T03:58:33;9.70;99.90
16666;DHT22;8446;50.998;6.250;2023-05-14T04:01:00;9.70;99.90
16666;DHT22;8446;50.998;6.250;2023-05-14T04:03:27;9.70;99.90
16666;DHT22;8446;50.998;6.250;2023-05-14T04:05:54;9.60;99.90
16666;DHT22;8446;50.998;6.250;2023-05-14T04:08:21;9.60;99.90
16666;DHT22;8446;50.998;6.250;2023-05-14T04:10:48;9.70;99.90
16666;DHT22;8446;50.998;6.250;2023-05-14T04:13:16;9.60;99.90
16666;DHT22;8446;50.998;6.250;2023-05-14T04:15:43;9.60;99.90
16666;DHT22;8446;50.998;6.250;2023-05-14T04:18:10;9.30;99.90
16666;DHT22;8446;50.998;6.250;2023-05-14T04:20:36;9.20;99.90
16666;DHT22;8446;50.998;6.250;2023-05-14T04:23:03;9.20;99.90
16666;DHT22;8446;50.998;6.250;2023-05-14T04:25:30;9.30;99.90
16666;DHT22;8446;50.998;6.250;2023-05-14T04:27:57;9.30;99.90
16666;DHT22;8446;50.998;6.250;2023-05-14T04:30:25;9.20;99.90
16666;DHT22;8446;50.998;6.250;2023-05-14T04:32:52;9.20;99.90
16666;DHT22;8446;50.998;6.250;2023-05-14T04:35:19;9.20;99.90
16666;DHT22;8446;50.998;6.250;2023-05-14T04:37:46;9.30;99.90
16666;DHT22;8446;50.998;6.250;2023-05-14T04:40:14;9.30;99.90
16666;DHT22;8446;50.998;6.250;2023-05-14T04:42:41;9.40;99.90
16666;DHT22;8446;50.998;6.250;2023-05-14T04:45:08;9.40;99.90
16666;DHT22;8446;50.998;6.250;2023-05-14T04:47:37;9.40;99.90
16666;DHT22;8446;50.998;6.250;2023-05-14T04:50:05;9.40;99.90
16666;DHT22;8446;50.998;6.250;2023-05-14T04:52:33;9.40;99.90
16666;DHT22;8446;50.998;6.250;2023-05-14T04:55:00;9.50;99.90
16666;DHT22;8446;50.998;6.250;2023-05-14T04:57:27;9.50;99.90
16666;DHT22;8446;50.998;6.250;2023-05-14T04:59:54;9.60;99.90
16666;DHT22;8446;50.998;6.250;2023-05-14T05:02:21;9.70;99.90
16666;DHT22;8446;50.998;6.250;2023-05-14T05:04:49;9.80;99.90
16666;DHT22;8446;50.998;6.250;2023-05-14T05:07:15;9.80;99.90
16666;DHT22;8446;50.998;6.250;2023-05-14T05:09:42;9.90;99.90
16666;DHT22;8446;50.998;6.250;2023-05-14T05:12:09;9.90;99.90
16666;DHT22;8446;50.998;6.250;2023-05-14T05:14:36;9.90;99.90
16666;DHT22;8446;50.998;6.250;2023-05-14T05:17:03;9.90;99.90
16666;DHT22;8446;50.998;6.250;2023-05-14T05:19:30;10.00;99.90
16666;DHT22;8446;50.998;6.250;2023-05-14T05:21:58;10.00;99.90
16666;DHT22;8446;50.998;6.250;2023-05-14T05:24:24;10.10;99.90
16666;DHT22;8446;50.998;6.250;2023-05-14T05:26:51;10.00;99.90
16666;DHT22;8446;50.998;6.250;2023-05-14T05:29:20;10.10;99.90
16666;DHT22;8446;50.998;6.250;2023-05-14T05:31:47;10.10;99.90
16666;DHT22;8446;50.998;6.250;2023-05-14T05:34:14;10.20;99.90
16666;DHT22;8446;50.998;6.250;2023-05-14T05:36:41;10.20;99.90
16666;DHT22;8446;50.998;6.250;2023-05-14T05:39:09;10.30;99.90
16666;DHT22;8446;50.998;6.250;2023-05-14T05:41:36;10.40;99.90
16666;DHT22;8446;50.998;6.250;2023-05-14T05:44:03;10.60;99.90
16666;DHT22;8446;50.998;6.250;2023-05-14T05:46:29;10.70;99.90
16666;DHT22;8446;50.998;6.250;2023-05-14T05:48:56;10.80;99.90
16666;DHT22;8446;50.998;6.250;2023-05-14T05:51:23;10.80;99.90
16666;DHT22;8446;50.998;6.250;2023-05-14T05:53:50;11.00;99.90
16666;DHT22;8446;50.998;6.250;2023-05-14T05:56:18;11.10;99.90
16666;DHT22;8446;50.998;6.250;2023-05-14T05:58:45;11.20;99.90
16666;DHT22;8446;50.998;6.250;2023-05-14T06:01:12;11.30;99.90
16666;DHT22;8446;50.998;6.250;2023-05-14T06:03:39;11.40;99.90
16666;DHT22;8446;50.998;6.250;2023-05-14T06:06:06;11.50;99.90
16666;DHT22;8446;50.998;6.250;2023-05-14T06:08:32;11.60;99.90
16666;DHT22;8446;50.998;6.250;2023-05-14T06:10:59;11.70;99.90
16666;DHT22;8446;50.998;6.250;2023-05-14T06:13:28;11.90;99.90
16666;DHT22;8446;50.998;6.250;2023-05-14T06:15:55;11.90;99.90
16666;DHT22;8446;50.998;6.250;2023-05-14T06:18:22;12.10;99.90
16666;DHT22;8446;50.998;6.250;2023-05-14T06:20:49;12.20;99.90
16666;DHT22;8446;50.998;6.250;2023-05-14T06:23:16;12.40;99.90
16666;DHT22;8446;50.998;6.250;2023-05-14T06:25:43;12.50;99.90
16666;DHT22;8446;50.998;6.250;2023-05-14T06:28:10;12.70;99.90
16666;DHT22;8446;50.998;6.250;2023-05-14T06:30:38;12.80;99.90
16666;DHT22;8446;50.998;6.250;2023-05-14T06:33:05;12.90;99.90
16666;DHT22;8446;50.998;6.250;2023-05-14T06:35:32;13.00;99.90
16666;DHT22;8446;50.998;6.250;2023-05-14T06:37:59;13.10;99.90
16666;DHT22;8446;50.998;6.250;2023-05-14T06:40:26;13.20;99.90
16666;DHT22;8446;50.998;6.250;2023-05-14T06:42:53;13.30;99.90
16666;DHT22;8446;50.998;6.250;2023-05-14T06:45:19;13.50;99.90
16666;DHT22;8446;50.998;6.250;2023-05-14T06:47:48;13.60;99.90
16666;DHT22;8446;50.998;6.250;2023-05-14T06:50:15;13.70;99.90
16666;DHT22;8446;50.998;6.250;2023-05-14T06:52:42;13.90;99.90
16666;DHT22;8446;50.998;6.250;2023-05-14T06:55:09;13.90;99.90
16666;DHT22;8446;50.998;6.250;2023-05-14T06:57:37;14.10;99.90
16666;DHT22;8446;50.998;6.250;2023-05-14T07:00:05;14.20;99.90
16666;DHT22;8446;50.998;6.250;2023-05-14T07:02:32;14.30;99.90
16666;DHT22;8446;50.998;6.250;2023-05-14T07:05:01;14.50;99.90
16666;DHT22;8446;50.998;6.250;2023-05-14T07:07:28;14.60;99.90
16666;DHT22;8446;50.998;6.250;2023-05-14T07:09:54;14.60;99.90
16666;DHT22;8446;50.998;6.250;2023-05-14T07:12:21;14.80;99.90
16666;DHT22;8446;50.998;6.250;2023-05-14T07:14:48;14.80;99.90
16666;DHT22;8446;50.998;6.250;2023-05-14T07:17:15;15.00;99.90
16666;DHT22;8446;50.998;6.250;2023-05-14T07:19:42;15.10;99.90
16666;DHT22;8446;50.998;6.250;2023-05-14T07:22:10;15.30;99.90
16666;DHT22;8446;50.998;6.250;2023-05-14T07:24:37;15.20;99.90
16666;DHT22;8446;50.998;6.250;2023-05-14T07:27:04;15.30;99.90
16666;DHT22;8446;50.998;6.250;2023-05-14T07:29:33;15.50;99.90
16666;DHT22;8446;50.998;6.250;2023-05-14T07:32:00;15.50;99.90
16666;DHT22;8446;50.998;6.250;2023-05-14T07:34:27;15.70;99.90
16666;DHT22;8446;50.998;6.250;2023-05-14T07:36:55;15.90;99.90
16666;DHT22;8446;50.998;6.250;2023-05-14T07:39:23;16.00;99.90
16666;DHT22;8446;50.998;6.250;2023-05-14T07:41:50;16.20;99.90
16666;DHT22;8446;50.998;6.250;2023-05-14T07:44:19;16.30;99.90
16666;DHT22;8446;50.998;6.250;2023-05-14T07:46:46;16.30;99.90
16666;DHT22;8446;50.998;6.250;2023-05-14T07:49:13;16.40;99.90
16666;DHT22;8446;50.998;6.250;2023-05-14T07:51:40;16.50;99.90
16666;DHT22;8446;50.998;6.250;2023-05-14T07:54:07;16.70;99.90
16666;DHT22;8446;50.998;6.250;2023-05-14T07:56:37;16.70;99.90
16666;DHT22;8446;50.998;6.250;2023-05-14T07:59:04;16.80;99.90
16666;DHT22;8446;50.998;6.250;2023-05-14T08:01:31;16.70;99.90
16666;DHT22;8446;50.998;6.250;2023-05-14T08:03:59;16.80;99.90
16666;DHT22;8446;50.998;6.250;2023-05-14T08:06:26;16.80;99.90
16666;DHT22;8446;50.998;6.250;2023-05-14T08:08:54;16.80;99.90
16666;DHT22;8446;50.998;6.250;2023-05-14T08:11:21;16.80;99.90
16666;DHT22;8446;50.998;6.250;2023-05-14T08:13:50;16.80;99.90
16666;DHT22;8446;50.998;6.250;2023-05-14T08:16:18;16.70;99.90
16666;DHT22;8446;50.998;6.250;2023-05-14T08:18:44;16.80;99.90
16666;DHT22;8446;50.998;6.250;2023-05-14T08:21:11;16.90;99.90
16666;DHT22;8446;50.998;6.250;2023-05-14T08:23:38;17.00;99.90
16666;DHT22;8446;50.998;6.250;2023-05-14T08:26:05;17.10;99.90
16666;DHT22;8446;50.998;6.250;2023-05-14T08:28:32;16.80;99.90
16666;DHT22;8446;50.998;6.250;2023-05-14T08:31:00;16.80;99.90
16666;DHT22;8446;50.998;6.250;2023-05-14T08:33:26;16.90;99.90
16666;DHT22;8446;50.998;6.250;2023-05-14T08:35:53;17.10;99.90
16666;DHT22;8446;50.998;6.250;2023-05-14T08:38:20;17.10;99.90
16666;DHT22;8446;50.998;6.250;2023-05-14T08:40:47;17.20;99.90
16666;DHT22;8446;50.998;6.250;2023-05-14T08:43:18;17.30;99.90
16666;DHT22;8446;50.998;6.250;2023-05-14T08:45:45;17.20;99.90
16666;DHT22;8446;50.998;6.250;2023-05-14T08:48:18;17.20;99.90
16666;DHT22;8446;50.998;6.250;2023-05-14T08:50:45;17.40;99.90
16666;DHT22;8446;50.998;6.250;2023-05-14T08:53:12;17.60;99.90
16666;DHT22;8446;50.998;6.250;2023-05-14T08:55:40;17.80;99.90
16666;DHT22;8446;50.998;6.250;2023-05-14T08:58:08;17.90;99.90
16666;DHT22;8446;50.998;6.250;2023-05-14T09:00:35;18.00;99.90
16666;DHT22;8446;50.998;6.250;2023-05-14T09:03:03;18.10;99.90
16666;DHT22;8446;50.998;6.250;2023-05-14T09:05:32;18.30;99.90
16666;DHT22;8446;50.998;6.250;2023-05-14T09:07:59;18.60;99.90
16666;DHT22;8446;50.998;6.250;2023-05-14T09:10:26;18.60;99.90
16666;DHT22;8446;50.998;6.250;2023-05-14T09:12:53;18.60;99.90
16666;DHT22;8446;50.998;6.250;2023-05-14T09:15:19;18.70;99.90
16666;DHT22;8446;50.998;6.250;2023-05-14T09:17:46;18.60;99.90
16666;DHT22;8446;50.998;6.250;2023-05-14T09:20:13;18.80;99.90
16666;DHT22;8446;50.998;6.250;2023-05-14T09:22:42;18.90;99.90
16666;DHT22;8446;50.998;6.250;2023-05-14T09:25:10;18.80;99.90
16666;DHT22;8446;50.998;6.250;2023-05-14T09:27:37;18.80;99.90
16666;DHT22;8446;50.998;6.250;2023-05-14T09:30:07;19.10;99.90
16666;DHT22;8446;50.998;6.250;2023-05-14T09:32:36;19.30;99.90
16666;DHT22;8446;50.998;6.250;2023-05-14T09:35:11;19.30;99.90
16666;DHT22;8446;50.998;6.250;2023-05-14T09:37:42;19.20;99.90
16666;DHT22;8446;50.998;6.250;2023-05-14T09:40:09;19.30;99.90
16666;DHT22;8446;50.998;6.250;2023-05-14T09:42:36;19.40;99.90
16666;DHT22;8446;50.998;6.250;2023-05-14T09:45:05;19.70;99.90
16666;DHT22;8446;50.998;6.250;2023-05-14T09:47:32;20.20;99.90
16666;DHT22;8446;50.998;6.250;2023-05-14T09:49:59;20.60;99.90
16666;DHT22;8446;50.998;6.250;2023-05-14T09:52:26;20.80;99.90
16666;DHT22;8446;50.998;6.250;2023-05-14T09:54:54;21.00;99.90
16666;DHT22;8446;50.998;6.250;2023-05-14T09:57:21;21.40;99.90
16666;DHT22;8446;50.998;6.250;2023-05-14T09:59:48;21.50;99.90
16666;DHT22;8446;50.998;6.250;2023-05-14T10:02:21;21.40;99.90
16666;DHT22;8446;50.998;6.250;2023-05-14T10:04:49;21.40;99.90
16666;DHT22;8446;50.998;6.250;2023-05-14T10:07:20;21.50;99.90
16666;DHT22;8446;50.998;6.250;2023-05-14T10:09:47;21.20;99.90
16666;DHT22;8446;50.998;6.250;2023-05-14T10:12:21;21.20;99.90
16666;DHT22;8446;50.998;6.250;2023-05-14T10:14:49;21.10;99.90
16666;DHT22;8446;50.998;6.250;2023-05-14T10:17:20;21.20;99.90
16666;DHT22;8446;50.998;6.250;2023-05-14T10:19:51;21.50;99.90
16666;DHT22;8446;50.998;6.250;2023-05-14T10:22:22;21.60;99.90
16666;DHT22;8446;50.998;6.250;2023-05-14T10:24:50;21.70;99.90
16666;DHT22;8446;50.998;6.250;2023-05-14T10:27:19;22.00;99.90
16666;DHT22;8446;50.998;6.250;2023-05-14T10:29:51;22.10;99.90
16666;DHT22;8446;50.998;6.250;2023-05-14T10:32:20;22.10;99.90
16666;DHT22;8446;50.998;6.250;2023-05-14T10:34:48;22.20;99.90
16666;DHT22;8446;50.998;6.250;2023-05-14T10:37:16;21.80;99.90
16666;DHT22;8446;50.998;6.250;2023-05-14T10:39:45;21.90;99.90
16666;DHT22;8446;50.998;6.250;2023-05-14T10:42:15;22.20;99.90
16666;DHT22;8446;50.998;6.250;2023-05-14T10:44:50;22.20;99.90
16666;DHT22;8446;50.998;6.250;2023-05-14T10:47:17;22.40;99.90
16666;DHT22;8446;50.998;6.250;2023-05-14T10:49:45;22.30;99.90
16666;DHT22;8446;50.998;6.250;2023-05-14T10:52:16;22.00;99.90
16666;DHT22;8446;50.998;6.250;2023-05-14T10:54:51;22.10;99.90
16666;DHT22;8446;50.998;6.250;2023-05-14T10:57:19;22.30;99.90
16666;DHT22;8446;50.998;6.250;2023-05-14T10:59:48;22.50;99.90
16666;DHT22;8446;50.998;6.250;2023-05-14T11:02:23;22.30;99.90
16666;DHT22;8446;50.998;6.250;2023-05-14T11:04:58;22.50;99.90
16666;DHT22;8446;50.998;6.250;2023-05-14T11:07:28;22.60;99.90
16666;DHT22;8446;50.998;6.250;2023-05-14T11:09:59;22.70;99.90
16666;DHT22;8446;50.998;6.250;2023-05-14T11:12:27;22.90;99.90
16666;DHT22;8446;50.998;6.250;2023-05-14T11:14:56;23.00;99.90
16666;DHT22;8446;50.998;6.250;2023-05-14T11:17:24;23.10;99.90
16666;DHT22;8446;50.998;6.250;2023-05-14T11:19:51;23.10;99.90
16666;DHT22;8446;50.998;6.250;2023-05-14T11:22:17;23.20;99.90
16666;DHT22;8446;50.998;6.250;2023-05-14T11:24:44;23.30;99.90
16666;DHT22;8446;50.998;6.250;2023-05-14T11:27:11;23.10;99.90
16666;DHT22;8446;50.998;6.250;2023-05-14T11:29:39;22.70;99.90
16666;DHT22;8446;50.998;6.250;2023-05-14T11:32:10;22.50;99.90
16666;DHT22;8446;50.998;6.250;2023-05-14T11:34:37;22.40;99.90
16666;DHT22;8446;50.998;6.250;2023-05-14T11:37:04;22.10;99.90
16666;DHT22;8446;50.998;6.250;2023-05-14T11:39:31;21.90;99.90
16666;DHT22;8446;50.998;6.250;2023-05-14T11:41:58;21.90;99.90
16666;DHT22;8446;50.998;6.250;2023-05-14T11:44:27;22.00;99.90
16666;DHT22;8446;50.998;6.250;2023-05-14T11:46:55;21.90;99.90
16666;DHT22;8446;50.998;6.250;2023-05-14T11:49:24;21.90;99.90
16666;DHT22;8446;50.998;6.250;2023-05-14T11:51:56;21.80;99.90
16666;DHT22;8446;50.998;6.250;2023-05-14T11:54:24;21.90;99.90
16666;DHT22;8446;50.998;6.250;2023-05-14T11:56:51;22.40;99.90
16666;DHT22;8446;50.998;6.250;2023-05-14T11:59:18;23.10;99.90
16666;DHT22;8446;50.998;6.250;2023-05-14T12:01:45;23.30;99.90
16666;DHT22;8446;50.998;6.250;2023-05-14T12:04:12;23.70;99.90
16666;DHT22;8446;50.998;6.250;2023-05-14T12:06:41;24.40;99.90
16666;DHT22;8446;50.998;6.250;2023-05-14T12:09:11;24.60;99.90
16666;DHT22;8446;50.998;6.250;2023-05-14T12:11:40;24.30;99.90
16666;DHT22;8446;50.998;6.250;2023-05-14T12:14:11;24.50;99.90
16666;DHT22;8446;50.998;6.250;2023-05-14T12:16:40;25.20;99.90
16666;DHT22;8446;50.998;6.250;2023-05-14T12:19:08;25.20;99.90
16666;DHT22;8446;50.998;6.250;2023-05-14T12:21:36;25.30;99.90
16666;DHT22;8446;50.998;6.250;2023-05-14T12:24:09;25.60;99.90
16666;DHT22;8446;50.998;6.250;2023-05-14T12:26:36;25.80;99.90
16666;DHT22;8446;50.998;6.250;2023-05-14T12:29:04;26.20;99.90
16666;DHT22;8446;50.998;6.250;2023-05-14T12:31:33;26.50;99.90
16666;DHT22;8446;50.998;6.250;2023-05-14T12:34:01;26.50;99.90
16666;DHT22;8446;50.998;6.250;2023-05-14T12:36:28;26.20;99.90
16666;DHT22;8446;50.998;6.250;2023-05-14T12:38:58;25.70;99.90
16666;DHT22;8446;50.998;6.250;2023-05-14T12:41:27;25.20;99.90
16666;DHT22;8446;50.998;6.250;2023-05-14T12:43:53;24.90;99.90
16666;DHT22;8446;50.998;6.250;2023-05-14T12:46:20;24.40;99.90
16666;DHT22;8446;50.998;6.250;2023-05-14T12:48:48;24.30;99.90
16666;DHT22;8446;50.998;6.250;2023-05-14T12:51:15;24.50;99.90
16666;DHT22;8446;50.998;6.250;2023-05-14T12:53:42;24.40;99.90
16666;DHT22;8446;50.998;6.250;2023-05-14T12:56:09;24.30;99.90
16666;DHT22;8446;50.998;6.250;2023-05-14T12:58:37;24.10;99.90
16666;DHT22;8446;50.998;6.250;2023-05-14T13:01:05;23.90;99.90
16666;DHT22;8446;50.998;6.250;2023-05-14T13:03:32;23.70;99.90
16666;DHT22;8446;50.998;6.250;2023-05-14T13:05:58;23.60;99.90
16666;DHT22;8446;50.998;6.250;2023-05-14T13:08:25;23.70;99.90
16666;DHT22;8446;50.998;6.250;2023-05-14T13:10:53;24.40;99.90
16666;DHT22;8446;50.998;6.250;2023-05-14T13:13:19;25.00;99.90
16666;DHT22;8446;50.998;6.250;2023-05-14T13:15:48;25.20;99.90
16666;DHT22;8446;50.998;6.250;2023-05-14T13:18:16;25.00;99.90
16666;DHT22;8446;50.998;6.250;2023-05-14T13:20:44;24.70;99.90
16666;DHT22;8446;50.998;6.250;2023-05-14T13:23:10;24.40;99.90
16666;DHT22;8446;50.998;6.250;2023-05-14T13:25:37;23.90;99.90
16666;DHT22;8446;50.998;6.250;2023-05-14T13:28:04;23.60;99.90
16666;DHT22;8446;50.998;6.250;2023-05-14T13:30:31;23.60;99.90
16666;DHT22;8446;50.998;6.250;2023-05-14T13:32:59;23.50;99.90
16666;DHT22;8446;50.998;6.250;2023-05-14T13:35:26;24.10;99.90
16666;DHT22;8446;50.998;6.250;2023-05-14T13:37:53;25.10;97.80
16666;DHT22;8446;50.998;6.250;2023-05-14T13:40:20;26.00;93.60
16666;DHT22;8446;50.998;6.250;2023-05-14T13:42:47;26.60;93.40
16666;DHT22;8446;50.998;6.250;2023-05-14T13:45:14;27.10;96.20
16666;DHT22;8446;50.998;6.250;2023-05-14T13:47:41;27.30;85.60
16666;DHT22;8446;50.998;6.250;2023-05-14T13:50:10;27.10;85.70
16666;DHT22;8446;50.998;6.250;2023-05-14T13:52:37;26.60;87.90
16666;DHT22;8446;50.998;6.250;2023-05-14T13:55:05;26.20;85.40
16666;DHT22;8446;50.998;6.250;2023-05-14T13:57:32;25.80;93.60
16666;DHT22;8446;50.998;6.250;2023-05-14T13:59:59;25.80;97.40
16666;DHT22;8446;50.998;6.250;2023-05-14T14:02:25;26.30;97.30
16666;DHT22;8446;50.998;6.250;2023-05-14T14:04:52;26.60;96.90
16666;DHT22;8446;50.998;6.250;2023-05-14T14:07:20;26.90;98.00
16666;DHT22;8446;50.998;6.250;2023-05-14T14:09:47;27.00;96.20
16666;DHT22;8446;50.998;6.250;2023-05-14T14:12:14;26.80;96.90
16666;DHT22;8446;50.998;6.250;2023-05-14T14:14:41;26.50;96.90
16666;DHT22;8446;50.998;6.250;2023-05-14T14:17:08;25.80;97.70
16666;DHT22;8446;50.998;6.250;2023-05-14T14:19:35;25.30;99.90
16666;DHT22;8446;50.998;6.250;2023-05-14T14:22:02;25.30;99.90
16666;DHT22;8446;50.998;6.250;2023-05-14T14:24:30;25.40;99.90
16666;DHT22;8446;50.998;6.250;2023-05-14T14:26:56;25.30;99.90
16666;DHT22;8446;50.998;6.250;2023-05-14T14:29:23;24.90;99.90
16666;DHT22;8446;50.998;6.250;2023-05-14T14:31:51;24.50;99.90
16666;DHT22;8446;50.998;6.250;2023-05-14T14:34:18;24.40;99.90
16666;DHT22;8446;50.998;6.250;2023-05-14T14:36:44;24.00;99.90
16666;DHT22;8446;50.998;6.250;2023-05-14T14:39:11;23.70;99.90
16666;DHT22;8446;50.998;6.250;2023-05-14T14:41:39;23.70;99.90
16666;DHT22;8446;50.998;6.250;2023-05-14T14:44:06;23.80;99.90
16666;DHT22;8446;50.998;6.250;2023-05-14T14:46:33;23.90;99.90
16666;DHT22;8446;50.998;6.250;2023-05-14T14:48:59;24.20;99.90
16666;DHT22;8446;50.998;6.250;2023-05-14T14:51:26;24.00;99.90
16666;DHT22;8446;50.998;6.250;2023-05-14T14:53:54;23.90;99.90
16666;DHT22;8446;50.998;6.250;2023-05-14T14:56:21;23.60;99.90
16666;DHT22;8446;50.998;6.250;2023-05-14T14:58:49;23.60;99.90
16666;DHT22;8446;50.998;6.250;2023-05-14T15:01:16;23.20;99.90
16666;DHT22;8446;50.998;6.250;2023-05-14T15:03:43;23.00;99.90
16666;DHT22;8446;50.998;6.250;2023-05-14T15:06:12;22.90;99.90
16666;DHT22;8446;50.998;6.250;2023-05-14T15:08:39;22.70;99.90
16666;DHT22;8446;50.998;6.250;2023-05-14T15:11:06;22.50;99.90
16666;DHT22;8446;50.998;6.250;2023-05-14T15:13:33;22.40;99.90
16666;DHT22;8446;50.998;6.250;2023-05-14T15:16:01;22.20;99.90
16666;DHT22;8446;50.998;6.250;2023-05-14T15:18:28;22.20;99.90
16666;DHT22;8446;50.998;6.250;2023-05-14T15:20:55;22.10;99.90
16666;DHT22;8446;50.998;6.250;2023-05-14T15:23:22;22.20;99.90
16666;DHT22;8446;50.998;6.250;2023-05-14T15:25:48;22.70;99.90
16666;DHT22;8446;50.998;6.250;2023-05-14T15:28:15;22.90;99.90
16666;DHT22;8446;50.998;6.250;2023-05-14T15:30:42;23.10;99.90
16666;DHT22;8446;50.998;6.250;2023-05-14T15:33:11;23.40;99.90
16666;DHT22;8446;50.998;6.250;2023-05-14T15:35:40;23.70;99.90
16666;DHT22;8446;50.998;6.250;2023-05-14T15:38:07;24.00;99.90
16666;DHT22;8446;50.998;6.250;2023-05-14T15:40:34;24.40;99.90
16666;DHT22;8446;50.998;6.250;2023-05-14T15:43:01;24.70;99.90
16666;DHT22;8446;50.998;6.250;2023-05-14T15:45:27;24.90;99.90
16666;DHT22;8446;50.998;6.250;2023-05-14T15:47:55;24.80;96.80
16666;DHT22;8446;50.998;6.250;2023-05-14T15:50:23;24.80;97.00